Time;durP1;ratioP1;P1;durP2;ratioP2;P2;SDS_P1;SDS_P2;PMS_P1;PMS_P2;Temp;Humidity;BMP_temperature;BMP_pressure;BME280_temperature;BME280_humidity;BME280_pressure;Samples;Min_cycle;Max_cycle;Signal;HPM_P1;HPM_P2
2021/10/30 00:00:30;;;;;;;33.00;19.15;;;;;;;6.94;100.00;101330.16;2582383;55;20135;-72
2021/10/30 00:03:04;;;;;;;30.45;18.95;;;;;;;6.92;100.00;101319.59;2578799;55;20109;-72
2021/10/30 00:05:32;;;;;;;33.63;17.70;;;;;;;6.96;100.00;101321.19;2578841;55;20500;-73
2021/10/30 00:08:00;;;;;;;29.58;18.25;;;;;;;6.94;100.00;101316.88;2579074;55;20113;-72
2021/10/30 00:10:32;;;;;;;28.55;18.02;;;;;;;6.93;100.00;101315.16;2579521;55;20822;-72
2021/10/30 00:13:07;;;;;;;28.33;17.50;;;;;;;6.96;100.00;101321.19;2578618;55;20652;-72
2021/10/30 00:15:37;;;;;;;28.85;17.35;;;;;;;6.94;100.00;101319.53;2578276;55;20518;-73
2021/10/30 00:18:14;;;;;;;29.35;16.85;;;;;;;6.99;100.00;101314.00;2578022;55;20136;-72
2021/10/30 00:20:42;;;;;;;30.62;17.58;;;;;;;6.95;100.00;101308.81;2577844;55;20132;-73
2021/10/30 00:23:14;;;;;;;31.42;18.80;;;;;;;6.95;100.00;101315.94;2576718;55;20535;-72
2021/10/30 00:25:47;;;;;;;31.55;18.65;;;;;;;6.99;100.00;101309.53;2571931;55;20133;-72
2021/10/30 00:28:21;;;;;;;33.20;19.33;;;;;;;7.01;100.00;101306.81;2575334;55;20124;-72
2021/10/30 00:30:49;;;;;;;28.45;16.65;;;;;;;7.03;100.00;101310.25;2577248;55;20665;-73
2021/10/30 00:33:19;;;;;;;27.50;17.35;;;;;;;7.03;100.00;101313.75;2573635;55;20114;-72
2021/10/30 00:35:47;;;;;;;26.02;16.62;;;;;;;7.05;100.00;101309.22;2572066;55;20523;-72
2021/10/30 00:38:14;;;;;;;26.08;16.75;;;;;;;7.05;100.00;101303.94;2572363;55;20527;-71
2021/10/30 00:40:42;;;;;;;31.10;16.35;;;;;;;7.05;100.00;101305.72;2572943;55;20117;-72
2021/10/30 00:43:10;;;;;;;28.75;16.20;;;;;;;7.00;100.00;101295.31;2572204;55;20110;-73
2021/10/30 00:45:38;;;;;;;26.75;16.25;;;;;;;7.03;100.00;101295.19;2572607;55;20642;-72
2021/10/30 00:48:06;;;;;;;30.02;17.20;;;;;;;7.05;100.00;101290.66;2567535;55;20136;-73
2021/10/30 00:50:35;;;;;;;28.23;16.42;;;;;;;7.03;100.00;101284.56;2572477;55;20128;-72
2021/10/30 00:53:03;;;;;;;30.55;17.05;;;;;;;7.03;100.00;101271.31;2572619;55;20655;-73
2021/10/30 00:55:31;;;;;;;34.00;16.95;;;;;;;7.03;100.00;101284.56;2572625;55;20109;-73
2021/10/30 00:58:02;;;;;;;25.95;16.73;;;;;;;7.02;100.00;101274.03;2572069;55;20632;-73
2021/10/30 01:00:29;;;;;;;26.35;17.20;;;;;;;7.05;100.00;101265.91;2572752;55;20650;-72
2021/10/30 01:02:57;;;;;;;28.85;16.42;;;;;;;7.02;100.00;101264.28;2572662;55;20622;-73
2021/10/30 01:05:26;;;;;;;29.08;17.98;;;;;;;7.00;100.00;101260.84;2572284;55;20619;-73
2021/10/30 01:07:55;;;;;;;31.37;17.77;;;;;;;7.00;100.00;101263.50;2572387;55;20125;-73
2021/10/30 01:10:22;;;;;;;26.00;16.45;;;;;;;6.98;100.00;101253.91;2572661;55;20125;-73
2021/10/30 01:12:51;;;;;;;28.15;16.85;;;;;;;6.99;100.00;101263.59;2572210;55;20512;-73
2021/10/30 01:15:19;;;;;;;28.12;16.20;;;;;;;7.04;100.00;101264.19;2572811;55;20118;-73
2021/10/30 01:17:46;;;;;;;28.92;16.92;;;;;;;7.02;100.00;101274.03;2572165;55;20175;-73
2021/10/30 01:20:21;;;;;;;28.62;15.60;;;;;;;7.04;100.00;101264.19;2572299;55;20122;-73
2021/10/30 01:22:49;;;;;;;29.50;16.27;;;;;;;7.05;100.00;101269.44;2572711;55;20114;-73
2021/10/30 01:25:21;;;;;;;28.42;17.87;;;;;;;7.11;100.00;101273.56;2572695;55;20121;-73
2021/10/30 01:27:52;;;;;;;26.50;15.95;;;;;;;7.11;100.00;101276.22;2572047;55;20130;-73
2021/10/30 01:30:22;;;;;;;28.12;16.73;;;;;;;7.13;100.00;101270.84;2572727;55;20121;-74
2021/10/30 01:32:54;;;;;;;28.55;15.93;;;;;;;7.18;100.00;101259.03;2572524;55;20106;-73
2021/10/30 01:35:29;;;;;;;24.12;15.35;;;;;;;7.23;100.00;101259.66;2572420;55;20144;-73
2021/10/30 01:37:58;;;;;;;25.23;16.75;;;;;;;7.26;100.00;101266.59;2567697;55;20136;-73
2021/10/30 01:40:26;;;;;;;23.70;15.98;;;;;;;7.26;100.00;101266.59;2572502;55;20114;-73
2021/10/30 01:42:55;;;;;;;29.05;16.85;;;;;;;7.26;100.00;101263.94;2572172;55;20143;-73
2021/10/30 01:45:24;;;;;;;26.52;16.60;;;;;;;7.24;100.00;101260.53;2572817;55;20115;-73
2021/10/30 01:47:52;;;;;;;25.23;15.50;;;;;;;7.21;100.00;101266.84;2572088;55;20140;-73
2021/10/30 01:50:20;;;;;;;24.20;15.80;;;;;;;7.18;100.00;101271.44;2572379;55;20125;-74
2021/10/30 01:52:50;;;;;;;24.27;15.25;;;;;;;7.17;100.00;101264.41;2572450;55;20114;-74
2021/10/30 01:55:21;;;;;;;26.00;16.93;;;;;;;7.13;100.00;101265.53;2572314;55;20117;-73
2021/10/30 01:57:50;;;;;;;26.23;15.82;;;;;;;7.16;100.00;101257.41;2572072;55;20652;-73
2021/10/30 02:00:19;;;;;;;26.48;17.60;;;;;;;7.15;100.00;101259.19;2572436;55;20153;-73
2021/10/30 02:02:47;;;;;;;30.75;16.60;;;;;;;7.16;100.00;101265.38;2572331;55;20131;-73
2021/10/30 02:05:15;;;;;;;23.95;16.20;;;;;;;7.16;100.00;101260.91;2572257;55;20134;-73
2021/10/30 02:07:43;;;;;;;25.85;14.85;;;;;;;7.17;100.00;101257.34;2572094;55;20137;-74
2021/10/30 02:10:14;;;;;;;23.87;15.52;;;;;;;7.18;100.00;101272.31;2572574;55;20114;-73
2021/10/30 02:12:42;;;;;;;25.42;16.62;;;;;;;7.18;100.00;101276.75;2572322;55;20129;-74
2021/10/30 02:15:11;;;;;;;29.67;18.17;;;;;;;7.19;100.00;101286.44;2572208;55;20129;-73
2021/10/30 02:17:39;;;;;;;28.83;17.00;;;;;;;7.17;100.00;101277.69;2572287;55;20125;-74
2021/10/30 02:20:10;;;;;;;25.10;15.52;;;;;;;7.14;100.00;101272.56;2572393;55;20132;-73
2021/10/30 02:22:40;;;;;;;24.25;16.12;;;;;;;7.11;100.00;101281.53;2572116;55;20128;-73
2021/10/30 02:25:30;;;;;;;26.60;16.17;;;;;;;7.13;100.00;101292.91;2572221;55;20109;-73
2021/10/30 02:27:59;;;;;;;27.52;16.00;;;;;;;7.05;100.00;101282.69;2571493;55;20136;-73
2021/10/30 02:30:27;;;;;;;26.15;15.80;;;;;;;7.05;100.00;101274.75;2572339;55;20122;-72
2021/10/30 02:32:55;;;;;;;24.50;15.88;;;;;;;7.01;100.00;101283.78;2571969;55;20230;-73
2021/10/30 02:35:23;;;;;;;23.50;15.75;;;;;;;7.02;100.00;101282.88;2572385;55;20120;-73
2021/10/30 02:37:52;;;;;;;27.83;16.15;;;;;;;7.03;100.00;101281.94;2572228;55;20122;-73
2021/10/30 02:40:19;;;;;;;29.15;17.42;;;;;;;6.98;100.00;101281.28;2571900;55;20129;-73
2021/10/30 02:42:47;;;;;;;28.10;17.23;;;;;;;6.96;100.00;101283.16;2572378;55;20123;-73
2021/10/30 02:45:17;;;;;;;25.00;14.77;;;;;;;6.96;100.00;101281.37;2572386;55;20121;-74
2021/10/30 02:47:44;;;;;;;25.92;16.33;;;;;;;6.93;100.00;101286.81;2572046;55;20114;-73
2021/10/30 02:50:12;;;;;;;25.08;15.10;;;;;;;6.93;100.00;101289.47;2572213;55;20132;-73
2021/10/30 02:52:41;;;;;;;25.65;15.30;;;;;;;6.91;100.00;101293.12;2567273;55;20127;-74
2021/10/30 02:55:09;;;;;;;26.10;16.58;;;;;;;6.87;100.00;101279.19;2572063;55;20125;-73
2021/10/30 02:57:37;;;;;;;26.05;16.50;;;;;;;6.85;100.00;101281.03;2572026;55;20114;-74
2021/10/30 03:00:06;;;;;;;30.88;17.37;;;;;;;6.86;100.00;101280.09;2572339;55;20144;-73
2021/10/30 03:02:36;;;;;;;29.80;17.50;;;;;;;6.85;100.00;101283.69;2571707;55;20126;-73
2021/10/30 03:05:03;;;;;;;28.25;16.60;;;;;;;6.81;100.00;101280.38;2572125;55;20123;-73
2021/10/30 03:07:35;;;;;;;28.42;17.10;;;;;;;6.78;100.00;101288.47;2572149;55;20129;-73
2021/10/30 03:10:03;;;;;;;26.02;16.25;;;;;;;6.78;100.00;101298.22;2571939;55;20125;-73
2021/10/30 03:12:31;;;;;;;26.40;16.02;;;;;;;6.78;100.00;101293.75;2572101;55;20122;-73
2021/10/30 03:14:59;;;;;;;31.15;18.33;;;;;;;6.79;100.00;101297.28;2572261;55;20210;-73
2021/10/30 03:17:27;;;;;;;26.40;16.15;;;;;;;6.78;100.00;101307.03;2571830;55;20117;-73
2021/10/30 03:19:57;;;;;;;27.67;16.65;;;;;;;6.77;100.00;101307.97;2572230;55;20136;-73
2021/10/30 03:22:24;;;;;;;27.52;16.90;;;;;;;6.77;100.00;101307.13;2572086;55;20118;-73
2021/10/30 03:24:53;;;;;;;28.33;16.23;;;;;;;6.79;100.00;101294.63;2571888;55;20120;-73
2021/10/30 03:27:21;;;;;;;28.98;16.98;;;;;;;6.81;100.00;101306.91;2572087;55;20135;-73
2021/10/30 03:29:48;;;;;;;26.40;17.02;;;;;;;6.80;100.00;101299.84;2572170;55;20629;-73
2021/10/30 03:32:16;;;;;;;33.28;16.90;;;;;;;6.80;100.00;101297.19;2571928;55;20133;-73
2021/10/30 03:34:45;;;;;;;25.98;15.55;;;;;;;6.85;100.00;101312.03;2572021;55;20729;-73
2021/10/30 03:37:14;;;;;;;29.10;16.15;;;;;;;6.86;100.00;101316.41;2571941;55;20127;-74
2021/10/30 03:39:41;;;;;;;25.37;16.37;;;;;;;6.89;100.00;101305.63;2571683;55;20532;-73
2021/10/30 03:42:10;;;;;;;26.95;17.65;;;;;;;6.95;100.00;101322.09;2572080;55;20113;-73
2021/10/30 03:44:37;;;;;;;28.05;18.25;;;;;;;7.01;100.00;101320.09;2571999;55;20102;-73
2021/10/30 03:47:06;;;;;;;27.95;17.65;;;;;;;7.04;100.00;101314.59;2571601;55;20127;-73
2021/10/30 03:49:34;;;;;;;26.83;16.62;;;;;;;7.09;100.00;101316.09;2572067;55;20131;-73
2021/10/30 03:52:02;;;;;;;25.70;17.08;;;;;;;7.15;100.00;101314.06;2571947;55;20607;-73
2021/10/30 03:54:31;;;;;;;29.73;17.15;;;;;;;7.20;100.00;101312.03;2571887;55;20105;-73
2021/10/30 03:56:59;;;;;;;26.45;16.83;;;;;;;7.23;100.00;101309.22;2571875;55;20125;-72
2021/10/30 03:59:27;;;;;;;29.55;17.85;;;;;;;7.26;100.00;101314.38;2571912;55;20517;-73
2021/10/30 04:01:55;;;;;;;28.52;15.85;;;;;;;7.29;100.00;101311.56;2571782;55;20832;-73
2021/10/30 04:04:23;;;;;;;29.55;17.95;;;;;;;7.29;100.00;101311.56;2571941;55;20114;-72
2021/10/30 04:06:51;;;;;;;27.70;17.25;;;;;;;7.34;100.00;101314.84;2571723;55;20098;-73
2021/10/30 04:09:20;;;;;;;24.40;16.08;;;;;;;7.35;100.00;101307.72;2571975;55;20494;-73
2021/10/30 04:11:50;;;;;;;28.98;18.58;;;;;;;7.38;100.00;101320.84;2571696;55;20121;-73
2021/10/30 04:14:18;;;;;;;28.65;17.23;;;;;;;7.40;100.00;101315.44;2571974;55;20492;-72
2021/10/30 04:16:46;;;;;;;25.60;16.12;;;;;;;7.37;100.00;101312.00;2571606;55;20132;-73
2021/10/30 04:19:14;;;;;;;27.60;17.98;;;;;;;7.40;100.00;101311.00;2571770;55;20131;-73
2021/10/30 04:21:42;;;;;;;26.80;16.75;;;;;;;7.40;100.00;101307.47;2572028;55;20623;-73
2021/10/30 04:24:10;;;;;;;27.92;17.37;;;;;;;7.40;100.00;101304.81;2566647;55;20121;-73
2021/10/30 04:26:39;;;;;;;25.25;16.60;;;;;;;7.45;100.00;101302.81;2571968;55;20143;-73
2021/10/30 04:29:09;;;;;;;27.90;17.83;;;;;;;7.45;100.00;101302.81;2571635;55;20516;-73
2021/10/30 04:31:37;;;;;;;28.27;17.87;;;;;;;7.45;100.00;101302.81;2566637;55;20118;-73
2021/10/30 04:34:06;;;;;;;30.20;17.75;;;;;;;7.46;100.00;101308.00;2571768;55;20113;-73
2021/10/30 04:36:35;;;;;;;26.60;17.70;;;;;;;7.47;100.00;101327.47;2572105;55;20109;-73
2021/10/30 04:39:04;;;;;;;27.05;17.55;;;;;;;7.48;100.00;101311.47;2571370;55;20132;-73
2021/10/30 04:41:35;;;;;;;30.85;17.45;;;;;;;7.48;100.00;101314.13;2571992;55;20139;-72
2021/10/30 04:44:02;;;;;;;28.02;17.60;;;;;;;7.51;100.00;101315.72;2571598;55;20131;-73
2021/10/30 04:46:31;;;;;;;29.63;16.95;;;;;;;7.52;100.00;101314.81;2571218;55;20642;-73
2021/10/30 04:49:00;;;;;;;32.08;18.73;;;;;;;7.51;100.00;101307.78;2571565;55;20143;-72
2021/10/30 04:51:27;;;;;;;29.67;18.50;;;;;;;7.51;100.00;101318.37;2572618;55;20130;-73
2021/10/30 04:53:56;;;;;;;30.62;18.58;;;;;;;7.53;100.00;101319.19;2572327;55;20133;-73
2021/10/30 04:56:25;;;;;;;28.25;17.42;;;;;;;7.52;100.00;101312.16;2567544;55;20500;-72
2021/10/30 04:58:52;;;;;;;30.25;18.98;;;;;;;7.52;100.00;101315.66;2572598;55;20148;-73
2021/10/30 05:01:20;;;;;;;28.33;18.67;;;;;;;7.55;100.00;101319.97;2572373;55;20140;-72
2021/10/30 05:03:49;;;;;;;29.25;18.77;;;;;;;7.54;100.00;101323.56;2572604;55;20175;-72
2021/10/30 05:06:17;;;;;;;26.52;18.12;;;;;;;7.56;100.00;101316.38;2572701;55;20113;-72
2021/10/30 05:08:45;;;;;;;28.45;19.48;;;;;;;7.55;100.00;101325.28;2572158;55;20624;-72
2021/10/30 05:11:13;;;;;;;31.00;20.17;;;;;;;7.53;100.00;101313.88;2572444;55;20117;-73
2021/10/30 05:13:40;;;;;;;28.87;18.12;;;;;;;7.55;100.00;101325.28;2567535;55;20636;-73
2021/10/30 05:16:08;;;;;;;37.08;19.48;;;;;;;7.56;100.00;101320.81;2574246;55;20136;-72
2021/10/30 05:18:36;;;;;;;31.65;19.58;;;;;;;7.50;100.00;101311.37;2577013;55;20113;-73
2021/10/30 05:21:05;;;;;;;28.58;18.75;;;;;;;7.56;100.00;101332.28;2577192;55;20139;-72
2021/10/30 05:23:37;;;;;;;29.37;19.23;;;;;;;7.52;100.00;101314.81;2577233;55;20523;-73
2021/10/30 05:26:05;;;;;;;33.45;19.12;;;;;;;7.52;100.00;101325.44;2578128;55;20117;-73
2021/10/30 05:28:33;;;;;;;28.85;19.35;;;;;;;7.53;100.00;101337.78;2577641;55;20715;-74
2021/10/30 05:31:01;;;;;;;30.20;18.37;;;;;;;7.51;100.00;101329.00;2577614;55;20117;-73
2021/10/30 05:33:29;;;;;;;32.20;19.42;;;;;;;7.51;100.00;101334.31;2577580;55;20135;-73
2021/10/30 05:35:58;;;;;;;33.13;18.40;;;;;;;7.50;100.00;101335.25;2572485;55;20147;-73
2021/10/30 05:38:29;;;;;;;31.10;20.00;;;;;;;7.51;100.00;101337.84;2577389;55;20607;-73
2021/10/30 05:40:58;;;;;;;31.05;18.67;;;;;;;7.50;100.00;101343.22;2578016;55;20124;-73
2021/10/30 05:43:25;;;;;;;33.13;19.73;;;;;;;7.51;100.00;101329.00;2576917;55;20164;-73
2021/10/30 05:45:53;;;;;;;35.17;19.40;;;;;;;7.51;100.00;101331.66;2577759;55;20120;-73
2021/10/30 05:48:21;;;;;;;27.92;19.58;;;;;;;7.51;100.00;101345.81;2577682;55;20122;-73
2021/10/30 05:50:49;;;;;;;28.33;18.50;;;;;;;7.53;100.00;101343.09;2577384;55;20531;-73
2021/10/30 05:53:17;;;;;;;30.00;19.17;;;;;;;7.51;100.00;101335.19;2577726;55;20105;-72
2021/10/30 05:55:46;;;;;;;29.42;19.12;;;;;;;7.53;100.00;101340.44;2577750;55;20113;-73
2021/10/30 05:58:14;;;;;;;32.70;19.37;;;;;;;7.52;100.00;101342.22;2577186;55;20118;-73
2021/10/30 06:00:41;;;;;;;31.58;21.15;;;;;;;7.51;100.00;101336.97;2577977;55;20170;-73
2021/10/30 06:03:09;;;;;;;36.53;22.73;;;;;;;7.52;100.00;101346.69;2577278;55;20117;-73
2021/10/30 06:05:37;;;;;;;34.03;21.27;;;;;;;7.50;100.00;101341.44;2577310;55;20131;-73
2021/10/30 06:08:05;;;;;;;31.75;20.77;;;;;;;7.59;100.00;101348.06;2577247;55;20122;-72
2021/10/30 06:10:34;;;;;;;35.28;20.17;;;;;;;7.59;100.00;101347.22;2572304;55;20120;-72
2021/10/30 06:13:03;;;;;;;32.25;20.27;;;;;;;7.50;100.00;101340.56;2572153;55;20124;-72
2021/10/30 06:15:31;;;;;;;34.42;20.70;;;;;;;7.61;100.00;101354.12;2572425;55;20121;-73
2021/10/30 06:17:59;;;;;;;30.75;19.15;;;;;;;7.60;100.00;101363.06;2572291;55;20121;-73
2021/10/30 06:20:27;;;;;;;34.15;20.37;;;;;;;7.59;100.00;101379.94;2567126;55;20113;-73
2021/10/30 06:22:54;;;;;;;32.00;19.90;;;;;;;7.59;100.00;101374.62;2572327;55;20132;-73
2021/10/30 06:25:22;;;;;;;32.63;21.05;;;;;;;7.59;100.00;101377.28;2572210;55;20122;-73
2021/10/30 06:27:50;;;;;;;30.00;19.80;;;;;;;7.64;100.00;101385.87;2572211;55;20127;-73
2021/10/30 06:30:19;;;;;;;30.33;19.92;;;;;;;7.59;100.00;101382.59;2572396;55;20514;-72
2021/10/30 06:32:47;;;;;;;33.10;19.92;;;;;;;7.57;100.00;101381.81;2572141;55;20125;-72
2021/10/30 06:35:16;;;;;;;34.28;21.77;;;;;;;7.60;100.00;101383.47;2572235;55;20113;-72
2021/10/30 06:37:44;;;;;;;33.65;20.92;;;;;;;7.64;100.00;101383.22;2572092;55;20136;-73
2021/10/30 06:40:13;;;;;;;32.63;21.42;;;;;;;7.62;100.00;101390.41;2576303;55;20113;-73
2021/10/30 06:42:42;;;;;;;32.45;19.08;;;;;;;7.64;100.00;101388.53;2572282;55;20133;-72
2021/10/30 06:45:10;;;;;;;32.85;21.30;;;;;;;7.65;100.00;101379.63;2577234;55;20127;-72
2021/10/30 06:47:40;;;;;;;35.78;22.52;;;;;;;7.66;100.00;101391.97;2577288;55;20122;-73
2021/10/30 06:50:19;;;;;;;32.85;21.48;;;;;;;7.70;100.00;101387.34;2577159;55;20135;-73
2021/10/30 06:52:49;;;;;;;35.70;20.35;;;;;;;7.70;100.00;101390.00;2577087;55;20269;-73
2021/10/30 06:55:17;;;;;;;29.00;18.75;;;;;;;7.71;100.00;101389.06;2577634;55;20125;-73
2021/10/30 06:57:46;;;;;;;35.47;21.55;;;;;;;7.75;100.00;101397.72;2577131;55;20532;-73
2021/10/30 07:00:15;;;;;;;30.15;20.80;;;;;;;7.73;100.00;101391.66;2577120;55;20131;-73
2021/10/30 07:02:45;;;;;;;35.55;20.80;;;;;;;7.76;100.00;101392.31;2577433;55;20139;-73
2021/10/30 07:05:12;;;;;;;29.02;18.08;;;;;;;7.76;100.00;101396.78;2577245;55;20120;-73
2021/10/30 07:07:40;;;;;;;34.10;20.83;;;;;;;7.77;100.00;101393.19;2577313;55;20645;-74
2021/10/30 07:10:09;;;;;;;30.75;19.58;;;;;;;7.74;100.00;101396.03;2577372;55;20284;-73
2021/10/30 07:12:38;;;;;;;33.00;20.88;;;;;;;7.81;100.00;101400.06;2576976;55;20143;-74
2021/10/30 07:15:08;;;;;;;34.17;19.37;;;;;;;7.82;100.00;101404.44;2577151;55;20117;-73
2021/10/30 07:17:36;;;;;;;37.08;20.23;;;;;;;7.81;100.00;101405.38;2577508;55;20562;-73
2021/10/30 07:20:07;;;;;;;29.87;19.52;;;;;;;7.83;100.00;101405.28;2576664;55;20109;-73
2021/10/30 07:22:41;;;;;;;33.90;21.17;;;;;;;7.85;100.00;101406.06;2577031;55;20114;-73
2021/10/30 07:25:09;;;;;;;32.70;21.77;;;;;;;7.80;100.00;101414.28;2577355;55;20133;-73
2021/10/30 07:27:37;;;;;;;34.17;22.40;;;;;;;7.81;100.00;101405.38;2576996;55;20519;-74
2021/10/30 07:30:07;;;;;;;35.72;21.20;;;;;;;7.79;100.00;101404.59;2577118;55;20657;-73
2021/10/30 07:32:36;;;;;;;;;;;;;;;7.91;100.00;101403.94;2577893;55;20592;-73
2021/10/30 07:35:07;;;;;;;33.70;21.40;;;;;;;7.82;100.00;101409.75;2576809;55;19997;-74
2021/10/30 07:37:35;;;;;;;33.83;20.20;;;;;;;7.83;100.00;101410.59;2577681;55;20785;-74
2021/10/30 07:40:04;;;;;;;35.92;21.62;;;;;;;7.83;100.00;101416.78;2577209;55;20127;-73
2021/10/30 07:42:32;;;;;;;33.65;21.15;;;;;;;7.84;100.00;101417.63;2576817;55;20527;-73
2021/10/30 07:45:00;;;;;;;34.92;21.20;;;;;;;7.84;100.00;101421.16;2577463;55;20929;-73
2021/10/30 07:47:28;;;;;;;38.22;20.92;;;;;;;7.82;100.00;101423.06;2577276;55;20109;-73
2021/10/30 07:49:56;;;;;;;32.00;19.80;;;;;;;7.86;100.00;101432.56;2573731;55;20562;-73
2021/10/30 07:52:25;;;;;;;33.13;20.52;;;;;;;7.86;100.00;101435.22;2571983;55;20109;-73
2021/10/30 07:54:53;;;;;;;27.70;18.35;;;;;;;7.85;100.00;101438.81;2572265;55;20646;-73
2021/10/30 07:57:21;;;;;;;33.78;19.90;;;;;;;7.87;100.00;101436.94;2571494;55;20737;-73
2021/10/30 07:59:50;;;;;;;29.37;18.23;;;;;;;7.88;100.00;101441.31;2574292;55;20151;-74
2021/10/30 08:02:18;;;;;;;26.60;16.52;;;;;;;7.87;100.00;101447.56;2576993;55;20628;-74
2021/10/30 08:04:47;;;;;;;26.00;17.20;;;;;;;7.87;100.00;101452.03;2576801;55;20124;-73
2021/10/30 08:07:14;;;;;;;28.25;16.65;;;;;;;7.86;100.00;101459.12;2572136;55;20139;-74
2021/10/30 08:09:44;;;;;;;28.90;17.12;;;;;;;7.86;100.00;101452.94;2577171;55;20120;-73
2021/10/30 08:12:12;;;;;;;25.92;16.25;;;;;;;7.85;100.00;101459.19;2571675;55;20134;-73
2021/10/30 08:14:41;;;;;;;28.87;17.52;;;;;;;7.89;100.00;101463.44;2577471;55;20132;-73
2021/10/30 08:17:10;;;;;;;25.35;15.60;;;;;;;7.84;100.00;101463.69;2576842;55;20136;-72
2021/10/30 08:19:38;;;;;;;23.42;16.17;;;;;;;7.85;100.00;101469.81;2575372;55;20504;-73
2021/10/30 08:22:06;;;;;;;24.70;15.68;;;;;;;7.82;100.00;101475.31;2571592;55;20597;-73
2021/10/30 08:24:33;;;;;;;24.48;15.43;;;;;;;7.83;100.00;101477.91;2571647;55;20644;-73
2021/10/30 08:27:03;;;;;;;25.55;14.45;;;;;;;7.79;100.00;101478.97;2572500;55;20129;-73
2021/10/30 08:29:31;;;;;;;23.20;14.73;;;;;;;7.80;100.00;101484.22;2572855;55;20105;-73
2021/10/30 08:32:00;;;;;;;25.77;16.75;;;;;;;7.81;100.00;101474.44;2572608;55;20649;-72
2021/10/30 08:34:29;;;;;;;24.80;15.50;;;;;;;7.83;100.00;101464.63;2572467;55;20562;-73
2021/10/30 08:36:57;;;;;;;23.87;15.60;;;;;;;7.83;100.00;101475.25;2572879;55;20114;-72
2021/10/30 08:39:25;;;;;;;25.08;14.87;;;;;;;7.86;100.00;101483.03;2567688;55;20120;-72
2021/10/30 08:41:53;;;;;;;25.50;15.50;;;;;;;7.85;100.00;101483.12;2572145;55;20127;-72
2021/10/30 08:44:22;;;;;;;19.35;15.07;;;;;;;7.84;100.00;101484.94;2567374;55;20118;-72
2021/10/30 08:46:51;;;;;;;24.85;16.62;;;;;;;7.89;100.00;101492.66;2567461;55;20130;-71
2021/10/30 08:49:19;;;;;;;23.75;13.98;;;;;;;7.84;100.00;101489.38;2572150;55;20121;-73
2021/10/30 08:51:47;;;;;;;25.77;17.48;;;;;;;7.85;100.00;101485.78;2576280;55;20136;-72
2021/10/30 08:54:15;;;;;;;22.23;15.05;;;;;;;7.85;100.00;101486.62;2577687;55;20495;-72
2021/10/30 08:56:44;;;;;;;27.55;15.07;;;;;;;7.88;100.00;101491.78;2577735;55;20126;-72
2021/10/30 08:59:12;;;;;;;22.45;15.27;;;;;;;7.84;100.00;101484.06;2577667;55;20634;-72
2021/10/30 09:01:46;;;;;;;24.98;14.68;;;;;;;7.84;100.00;101492.91;2577187;55;20128;-74
2021/10/30 09:04:16;;;;;;;20.55;13.13;;;;;;;7.83;100.00;101492.97;2577485;55;20124;-73
2021/10/30 09:06:56;;;;;;;22.00;13.20;;;;;;;7.87;100.00;101490.06;2577584;55;20487;-72
2021/10/30 09:09:25;;;;;;;22.35;14.45;;;;;;;7.89;100.00;101488.19;2577595;55;20155;-72
2021/10/30 09:11:54;;;;;;;24.60;13.82;;;;;;;7.91;100.00;101502.25;2577500;55;20121;-72
2021/10/30 09:14:23;;;;;;;23.92;14.55;;;;;;;7.94;100.00;101488.81;2577824;55;20132;-72
2021/10/30 09:17:17;;;;;;;24.08;14.70;;;;;;;8.02;100.00;101492.91;2576267;55;20130;-72
2021/10/30 09:19:47;;;;;;;22.17;14.10;;;;;;;8.02;100.00;101499.06;2577095;55;20113;-72
2021/10/30 09:22:17;;;;;;;21.17;13.23;;;;;;;8.04;100.00;101512.28;2568181;55;20114;-72
2021/10/30 09:25:02;;;;;;;19.87;13.62;;;;;;;8.06;100.00;101513.03;2573044;55;20125;-72
2021/10/30 09:27:50;;;;;;;20.33;13.55;;;;;;;8.08;100.00;101501.41;2566099;55;20627;-71
2021/10/30 09:30:19;;;;;;;23.17;13.52;;;;;;;8.05;100.00;101500.69;2574988;55;20121;-72
2021/10/30 09:32:54;;;;;;;25.12;16.40;;;;;;;8.03;100.00;101506.09;2571274;55;20110;-71
2021/10/30 09:35:27;;;;;;;23.05;14.87;;;;;;;8.00;100.00;101505.38;2572880;55;20120;-71
2021/10/30 09:37:55;;;;;;;23.80;13.50;;;;;;;7.94;100.00;101494.13;2577110;55;20131;-71
2021/10/30 09:40:26;;;;;;;22.67;14.00;;;;;;;7.98;100.00;101504.59;2577355;55;20514;-71
2021/10/30 09:43:15;;;;;;;22.10;14.25;;;;;;;8.01;100.00;101500.00;2577267;55;20129;-71
2021/10/30 09:45:47;;;;;;;22.50;14.32;;;;;;;8.00;100.00;101511.56;2576892;55;20139;-71
2021/10/30 09:48:23;;;;;;;23.67;14.52;;;;;;;8.02;100.00;101516.81;2577381;55;20135;-71
2021/10/30 09:50:52;;;;;;;22.77;13.15;;;;;;;8.01;100.00;101515.94;2577056;55;20121;-73
2021/10/30 09:53:29;;;;;;;21.83;12.73;;;;;;;8.05;100.00;101512.16;2572283;55;20637;-71
2021/10/30 09:56:00;;;;;;;22.67;13.05;;;;;;;8.05;100.00;101516.66;2577894;55;20113;-71
2021/10/30 09:58:33;;;;;;;21.35;13.48;;;;;;;8.02;100.00;101514.16;2577654;55;20109;-71
2021/10/30 10:01:04;;;;;;;22.55;14.65;;;;;;;8.00;100.00;101522.19;2577471;55;20113;-71
2021/10/30 10:03:35;;;;;;;31.48;13.13;;;;;;;8.00;100.00;101510.69;2576204;55;20181;-72
2021/10/30 10:06:05;;;;;;;21.35;13.82;;;;;;;8.05;100.00;101508.66;2574530;55;20113;-72
2021/10/30 10:08:36;;;;;;;21.17;12.80;;;;;;;8.06;100.00;101515.69;2570145;55;20129;-71
2021/10/30 10:11:08;;;;;;;20.02;12.90;;;;;;;8.10;100.00;101511.94;2577194;55;20116;-71
2021/10/30 10:13:41;;;;;;;22.95;13.50;;;;;;;8.07;100.00;101506.78;2576112;55;20573;-71
2021/10/30 10:16:13;;;;;;;21.20;13.30;;;;;;;8.10;100.00;101511.94;2577934;55;20139;-71
2021/10/30 10:18:43;;;;;;;21.08;14.38;;;;;;;8.08;100.00;101520.00;2582967;55;20645;-71
2021/10/30 10:21:14;;;;;;;25.58;13.30;;;;;;;8.05;100.00;101524.63;2579219;55;20117;-72
2021/10/30 10:23:43;;;;;;;23.35;13.95;;;;;;;8.03;100.00;101518.53;2578991;55;20504;-71
2021/10/30 10:26:12;;;;;;;23.27;14.63;;;;;;;8.01;100.00;101523.91;2579334;55;20520;-71
2021/10/30 10:28:40;;;;;;;22.13;14.35;;;;;;;7.97;100.00;101522.38;2578617;55;20121;-71
2021/10/30 10:31:13;;;;;;;23.83;14.63;;;;;;;7.94;100.00;101518.06;2578065;55;20125;-72
2021/10/30 10:33:43;;;;;;;21.95;14.02;;;;;;;7.88;100.00;101513.03;2574471;55;20121;-71
2021/10/30 10:36:22;;;;;;;19.50;13.50;;;;;;;7.99;100.00;101498.34;2576326;55;20129;-72
2021/10/30 10:39:16;;;;;;;25.40;14.77;;;;;;;7.99;100.00;101507.19;2576374;55;20135;-71
2021/10/30 10:41:55;;;;;;;22.92;14.68;;;;;;;8.00;100.00;101500.06;2577141;55;20136;-71
2021/10/30 10:45:03;;;;;;;20.80;14.68;;;;;;;8.08;100.00;101503.19;2576880;55;20152;-71
2021/10/30 10:47:59;;;;;;;28.23;16.65;;;;;;;8.15;100.00;101495.75;2577229;55;20109;-71
2021/10/30 10:50:39;;;;;;;21.70;14.85;;;;;;;8.12;100.00;101499.44;2577381;55;20132;-71
2021/10/30 10:53:24;;;;;;;24.63;16.25;;;;;;;8.15;100.00;101487.78;2576799;55;20139;-71
2021/10/30 10:56:12;;;;;;;30.10;19.37;;;;;;;8.17;100.00;101486.75;2577267;55;20485;-71
2021/10/30 10:59:17;;;;;;;29.87;19.98;;;;;;;8.28;100.00;101493.31;2579062;55;20121;-71
2021/10/30 11:02:20;;;;;;;31.95;19.02;;;;;;;8.30;100.00;101476.34;2579160;55;20126;-71
2021/10/30 11:05:28;;;;;;;46.15;27.50;;;;;;;8.36;100.00;101491.09;2578361;55;20137;-71
2021/10/30 11:08:41;;;;;;;34.42;21.23;;;;;;;8.33;100.00;101504.56;2576816;55;20115;-71
2021/10/30 11:11:11;;;;;;;29.98;19.95;;;;;;;8.26;100.00;101495.19;2578272;55;20112;-71
2021/10/30 11:13:47;;;;;;;35.45;24.10;;;;;;;8.27;100.00;101496.91;2574580;55;20123;-71
2021/10/30 11:16:15;;;;;;;83.95;49.75;;;;;;;8.25;100.00;101502.28;2578475;55;20550;-71
2021/10/30 11:18:49;;;;;;;42.70;25.50;;;;;;;8.18;100.00;101488.47;2578827;55;20159;-71
2021/10/30 11:21:19;;;;;;;41.25;25.27;;;;;;;8.16;100.00;101493.00;2575568;55;20121;-72
2021/10/30 11:23:50;;;;;;;41.50;28.08;;;;;;;8.16;100.00;101490.34;2576276;55;20113;-71